Time;durP1;ratioP1;P1;durP2;ratioP2;P2;SDS_P1;SDS_P2;PMS_P1;PMS_P2;Temp;Humidity;BMP_temperature;BMP_pressure;BME280_temperature;BME280_humidity;BME280_pressure;Samples;Min_cycle;Max_cycle;Signal;HPM_P1;HPM_P2
2023/07/11 00:00:53;;;;;;;14.90;10.20;;;;;;;19.73;79.35;98823.27;225807;1280;22564;-69
2023/07/11 00:06:19;;;;;;;12.00;10.20;;;;;;;19.65;79.55;98822.08;225875;1280;22546;-69
2023/07/11 00:11:41;;;;;;;;;;;;;;;;;;;;;
2023/07/11 00:16:46;;;;;;;13.10;10.10;;;;;;;19.48;79.74;98835.84;225787;1268;22543;-69
2023/07/11 00:21:49;;;;;;;13.10;10.20;;;;;;;19.39;79.93;98833.70;225854;1276;23099;-69
2023/07/11 00:27:08;;;;;;;14.10;10.60;;;;;;;19.31;79.99;98842.42;225874;1280;22593;-70
2023/07/11 00:32:13;;;;;;;14.30;10.90;;;;;;;19.23;80.21;98842.55;225793;1280;22537;-69
2023/07/11 00:37:20;;;;;;;12.90;10.30;;;;;;;19.14;80.32;98843.58;225819;1280;22544;-69
2023/07/11 00:42:25;;;;;;;12.80;10.70;;;;;;;19.05;80.43;98850.58;225761;1280;22540;-69
2023/07/11 00:47:31;;;;;;;14.80;11.30;;;;;;;18.97;80.55;98851.68;225803;1273;22579;-70
2023/07/11 00:53:15;;;;;;;13.10;10.50;;;;;;;18.90;80.80;98848.91;225810;1280;22548;-70
2023/07/11 00:58:19;;;;;;;12.30;11.20;;;;;;;18.82;80.66;98857.29;225815;1280;22532;-70
2023/07/11 01:03:23;;;;;;;12.90;11.60;;;;;;;18.74;80.92;98868.75;225761;1276;24284;-68
2023/07/11 01:08:48;;;;;;;11.90;10.50;;;;;;;18.65;80.93;98857.94;225831;1275;22620;-68
2023/07/11 01:13:49;;;;;;;15.40;11.30;;;;;;;18.57;81.25;98845.71;225664;1280;22676;-68
2023/07/11 01:18:52;;;;;;;11.60;10.30;;;;;;;18.54;81.25;98842.00;225787;1275;24222;-68
2023/07/11 01:23:54;;;;;;;11.30;10.10;;;;;;;18.49;81.28;98838.58;225622;1280;22591;-68
2023/07/11 01:28:56;;;;;;;12.60;11.30;;;;;;;18.42;81.36;98839.61;225831;1261;22547;-68
2023/07/11 01:34:06;;;;;;;12.30;11.00;;;;;;;18.34;81.27;98838.70;225803;1280;25985;-68
2023/07/11 01:39:12;;;;;;;12.40;11.20;;;;;;;18.25;81.60;98843.07;225818;1280;22547;-69
2023/07/11 01:44:14;;;;;;;13.70;12.20;;;;;;;18.17;81.74;98844.02;225816;1280;22567;-69
2023/07/11 01:49:38;;;;;;;;;;;;;;;;;;;;;
2023/07/11 01:55:07;;;;;;;13.70;12.10;;;;;;;18.05;82.01;98859.55;225841;1280;22548;-69
2023/07/11 02:00:52;;;;;;;14.10;12.20;;;;;;;17.99;82.12;98863.64;225820;1280;22557;-69
2023/07/11 02:06:07;;;;;;;;;;;;;;;;;;;;;
2023/07/11 02:12:19;;;;;;;;;;;;;;;;;;;;;
2023/07/11 02:18:02;;;;;;;18.20;12.50;;;;;;;17.86;82.36;98870.04;225726;1280;22548;-67
2023/07/11 02:23:04;;;;;;;12.90;11.50;;;;;;;17.82;82.45;98870.08;225769;1280;22600;-68
2023/07/11 02:28:07;;;;;;;14.70;12.20;;;;;;;17.75;82.46;98877.31;225834;1276;22608;-70
2023/07/11 02:33:10;;;;;;;14.10;11.80;;;;;;;17.68;82.60;98882.33;225820;1276;22596;-69
2023/07/11 02:38:32;;;;;;;13.90;12.50;;;;;;;17.62;82.72;98882.27;225828;1278;22581;-69
2023/07/11 02:43:34;;;;;;;14.70;13.30;;;;;;;17.56;83.10;98885.44;225849;1280;22536;-69
2023/07/11 02:48:39;;;;;;;13.70;12.30;;;;;;;17.53;83.34;98880.48;225587;1280;22581;-69
2023/07/11 02:53:41;;;;;;;16.40;13.20;;;;;;;17.50;83.50;98877.98;225849;1264;22565;-69
2023/07/11 02:58:44;;;;;;;13.80;12.40;;;;;;;17.49;83.57;98883.52;225867;1278;24243;-69
2023/07/11 03:03:54;;;;;;;;;;;;;;;17.49;83.50;98886.89;225807;1277;22502;-69
2023/07/11 03:08:56;;;;;;;13.80;12.40;;;;;;;17.49;83.62;98885.90;225819;1275;22576;-68
2023/07/11 03:13:59;;;;;;;13.50;12.10;;;;;;;17.50;83.82;98890.16;225877;1273;22544;-68
2023/07/11 03:19:01;;;;;;;12.60;11.30;;;;;;;17.54;83.88;98899.17;225806;1275;22816;-69
2023/07/11 03:24:03;;;;;;;11.40;10.30;;;;;;;17.62;83.89;98899.85;225856;1280;22627;-70
2023/07/11 03:29:06;;;;;;;13.80;11.60;;;;;;;17.72;83.74;98909.63;225867;1276;22539;-69
2023/07/11 03:34:08;;;;;;;13.00;10.70;;;;;;;17.98;83.57;98914.30;225871;1262;22551;-68
2023/07/11 03:39:10;;;;;;;13.80;10.60;;;;;;;18.16;83.30;98910.27;225817;1276;26032;-69
2023/07/11 03:44:12;;;;;;;10.70;9.70;;;;;;;18.26;83.02;98906.05;225850;1276;22531;-69
2023/07/11 03:49:14;;;;;;;12.20;9.30;;;;;;;18.38;82.87;98914.92;225786;1278;22549;-69
2023/07/11 03:54:17;;;;;;;10.80;9.70;;;;;;;18.43;82.51;98920.05;225829;1276;22547;-69
2023/07/11 03:59:20;;;;;;;11.50;9.40;;;;;;;18.44;82.18;98914.89;225783;1277;25242;-68
2023/07/11 04:04:22;;;;;;;11.20;9.60;;;;;;;18.48;82.21;98912.69;225613;1280;22543;-68
2023/07/11 04:09:24;;;;;;;9.60;8.70;;;;;;;18.54;81.94;98908.36;225824;1275;22543;-69
2023/07/11 04:14:27;;;;;;;9.60;8.80;;;;;;;18.60;81.99;98916.33;225824;1278;22560;-68
2023/07/11 04:19:29;;;;;;;10.30;9.10;;;;;;;18.67;81.88;98919.75;225770;1278;22650;-70
2023/07/11 04:24:31;;;;;;;10.50;9.20;;;;;;;18.71;81.59;98924.52;225845;1275;22560;-68
2023/07/11 04:29:33;;;;;;;10.60;9.30;;;;;;;18.78;81.43;98924.89;225908;1280;24333;-71
2023/07/11 04:34:35;;;;;;;11.30;9.40;;;;;;;18.81;81.18;98927.73;225874;1276;22552;-68
2023/07/11 04:39:40;;;;;;;10.70;9.80;;;;;;;18.86;81.38;98931.80;225872;1276;22574;-69
2023/07/11 04:44:42;;;;;;;11.10;10.10;;;;;;;18.93;81.20;98936.27;225886;1276;25035;-69
2023/07/11 04:49:44;;;;;;;9.80;8.90;;;;;;;18.97;81.20;98941.77;225844;1263;22540;-69
2023/07/11 04:54:46;;;;;;;11.40;9.70;;;;;;;19.03;81.17;98939.20;225736;1280;22560;-70
2023/07/11 04:59:48;;;;;;;9.60;8.20;;;;;;;19.15;81.02;98940.17;225836;1280;24299;-69
2023/07/11 05:04:51;;;;;;;9.90;8.70;;;;;;;19.31;80.78;98952.75;225844;1277;22605;-70
2023/07/11 05:09:53;;;;;;;9.60;7.90;;;;;;;19.50;80.55;98955.46;225676;1279;24229;-68
2023/07/11 05:15:01;;;;;;;10.60;9.20;;;;;;;19.79;80.14;98956.83;225892;1277;22571;-69
2023/07/11 05:20:04;;;;;;;8.30;7.40;;;;;;;20.04;79.48;98961.10;225848;1278;22551;-69
2023/07/11 05:25:07;;;;;;;9.80;8.20;;;;;;;20.25;78.78;98964.69;225930;1277;22551;-68
2023/07/11 05:30:12;;;;;;;9.80;7.80;;;;;;;20.37;78.35;98963.70;225890;1277;22600;-70
2023/07/11 05:35:15;;;;;;;8.60;7.80;;;;;;;20.50;78.04;98969.95;225836;1278;22565;-68
2023/07/11 05:40:17;;;;;;;9.00;7.70;;;;;;;20.54;77.23;98968.99;225830;1259;22559;-68
2023/07/11 05:45:19;;;;;;;8.80;7.40;;;;;;;20.51;76.60;98971.02;225875;1276;22536;-69
2023/07/11 05:50:21;;;;;;;10.70;7.50;;;;;;;20.51;76.50;98970.61;225659;1275;23366;-68
2023/07/11 05:55:31;;;;;;;8.90;7.50;;;;;;;20.50;76.12;98969.84;225534;1277;22536;-70
2023/07/11 06:00:57;;;;;;;9.60;7.50;;;;;;;20.50;75.81;98971.66;225450;1273;22548;-69
2023/07/11 06:06:02;;;;;;;7.80;6.60;;;;;;;20.53;75.60;98968.54;225385;1265;22614;-69
2023/07/11 06:11:10;;;;;;;8.90;7.00;;;;;;;20.57;75.45;98965.88;225329;1274;24380;-69
2023/07/11 06:16:17;;;;;;;7.50;6.80;;;;;;;20.64;75.19;98967.09;225190;1265;23066;-69
2023/07/11 06:21:19;;;;;;;7.00;6.20;;;;;;;20.74;74.62;98967.92;225231;1262;272454;-72
2023/07/11 06:26:25;;;;;;;7.10;6.40;;;;;;;20.86;74.41;98966.99;225266;1278;22583;-70
2023/07/11 06:31:27;;;;;;;8.50;6.90;;;;;;;20.97;74.23;98964.86;225201;1260;22593;-71
2023/07/11 06:36:29;;;;;;;8.30;6.30;;;;;;;21.11;74.32;98959.29;225109;1265;24707;-71
2023/07/11 06:41:32;;;;;;;10.00;7.10;;;;;;;21.26;73.52;98964.41;225036;1260;22547;-72
2023/07/11 06:46:37;;;;;;;6.30;5.70;;;;;;;21.38;73.05;98965.25;225024;1265;26412;-71
2023/07/11 06:51:39;;;;;;;5.70;5.10;;;;;;;21.42;72.01;98962.10;225279;1259;22683;-70
2023/07/11 06:56:42;;;;;;;6.80;5.20;;;;;;;21.48;71.51;98959.48;225457;1266;22540;-69
2023/07/11 07:01:45;;;;;;;6.80;5.20;;;;;;;21.59;71.24;98959.48;225386;1262;22660;-69
2023/07/11 07:06:50;;;;;;;6.30;5.20;;;;;;;21.67;70.39;98964.13;225657;1275;25278;-69
2023/07/11 07:11:53;;;;;;;5.50;4.40;;;;;;;21.81;69.66;98957.41;225391;1259;22555;-69
2023/07/11 07:16:55;;;;;;;6.10;5.10;;;;;;;21.92;68.82;98961.61;225473;1265;22925;-68
2023/07/11 07:21:57;;;;;;;7.00;4.80;;;;;;;22.04;68.30;98954.77;225503;1266;22927;-72
2023/07/11 07:27:03;;;;;;;4.90;4.40;;;;;;;22.17;67.53;98951.64;225596;1270;23090;-70
2023/07/11 07:32:17;;;;;;;4.70;4.30;;;;;;;22.24;66.76;98949.16;225308;1259;22552;-70
2023/07/11 07:37:19;;;;;;;6.70;5.10;;;;;;;22.36;66.88;98946.16;225600;1265;22546;-70
2023/07/11 07:42:22;;;;;;;5.70;5.00;;;;;;;22.47;66.46;98956.45;225437;1275;22787;-70
2023/07/11 07:47:24;;;;;;;9.90;5.70;;;;;;;22.47;65.14;98953.27;225532;1265;22537;-70
2023/07/11 07:52:30;;;;;;;4.70;4.00;;;;;;;22.48;64.81;98948.38;225541;1275;24544;-74
2023/07/11 07:57:35;;;;;;;5.10;4.50;;;;;;;22.56;64.11;98950.04;225260;1273;22895;-72
2023/07/11 08:02:42;;;;;;;4.90;4.30;;;;;;;22.59;63.75;98950.32;225280;1259;22689;-70
2023/07/11 08:07:45;;;;;;;4.30;3.90;;;;;;;22.60;62.75;98952.05;225289;1259;22772;-73
2023/07/11 08:12:47;;;;;;;5.00;4.20;;;;;;;22.62;62.35;98945.06;225471;1257;22566;-71
2023/07/11 08:17:49;;;;;;;4.90;4.40;;;;;;;22.69;62.02;98952.44;225214;1265;22562;-72
2023/07/11 08:22:52;;;;;;;4.80;4.40;;;;;;;22.80;62.43;98953.37;225387;1276;23021;-71
2023/07/11 08:27:54;;;;;;;5.60;3.80;;;;;;;22.93;61.70;98956.71;225332;1270;22587;-70
2023/07/11 08:32:56;;;;;;;5.80;4.00;;;;;;;23.05;60.98;98963.53;225523;1265;22647;-71
2023/07/11 08:37:58;;;;;;;6.30;4.50;;;;;;;23.16;60.96;98966.65;225554;1261;22587;-70
2023/07/11 08:43:04;;;;;;;4.00;3.70;;;;;;;23.30;60.49;98959.56;225546;1273;22606;-71
2023/07/11 08:48:17;;;;;;;4.30;3.90;;;;;;;23.34;59.86;98964.48;225511;1265;24223;-69
2023/07/11 08:53:28;;;;;;;4.60;3.70;;;;;;;23.44;59.73;98959.81;225463;1275;22557;-70
2023/07/11 08:58:35;;;;;;;4.10;3.80;;;;;;;23.58;59.86;98954.52;225650;1268;22713;-69
2023/07/11 09:03:48;;;;;;;5.10;3.50;;;;;;;23.73;58.87;98952.33;225645;1261;22547;-70
2023/07/11 09:08:54;;;;;;;4.20;3.40;;;;;;;23.83;58.14;98951.73;225601;1268;22548;-71
2023/07/11 09:14:06;;;;;;;4.00;3.40;;;;;;;23.94;57.77;98953.56;225550;1256;22559;-70
2023/07/11 09:19:36;;;;;;;4.20;3.40;;;;;;;24.04;56.73;98961.45;225553;1269;25361;-71
2023/07/11 09:25:00;;;;;;;4.20;3.40;;;;;;;24.13;57.00;98959.11;225797;1268;22561;-71
2023/07/11 09:30:18;;;;;;;3.60;3.30;;;;;;;24.26;56.67;98948.70;225539;1259;22544;-70
2023/07/11 09:35:24;;;;;;;3.80;3.40;;;;;;;24.33;55.78;98954.64;225438;1278;22546;-71
2023/07/11 09:40:35;;;;;;;4.70;3.30;;;;;;;24.45;56.10;98951.36;225683;1273;23033;-71
2023/07/11 09:45:42;;;;;;;3.70;3.30;;;;;;;24.65;56.18;98947.35;225258;1270;24422;-73
2023/07/11 09:51:22;;;;;;;4.80;3.20;;;;;;;24.82;55.97;98944.59;225559;1280;22557;-71
2023/07/11 09:56:25;;;;;;;4.00;3.20;;;;;;;25.01;55.33;98945.46;225823;1259;22544;-70
2023/07/11 10:01:32;;;;;;;3.80;3.40;;;;;;;25.14;54.96;98947.33;225384;1275;22550;-72
2023/07/11 10:06:41;;;;;;;3.40;3.10;;;;;;;25.28;54.50;98945.85;225201;1262;22540;-71
2023/07/11 10:11:59;;;;;;;3.50;3.20;;;;;;;25.43;53.72;98947.76;225350;1278;25237;-71
2023/07/11 10:17:24;;;;;;;3.40;3.10;;;;;;;25.50;53.18;98943.16;225299;1266;22556;-72
2023/07/11 10:22:29;;;;;;;3.30;3.00;;;;;;;25.62;52.67;98937.69;225615;1275;22560;-72
2023/07/11 10:27:57;;;;;;;3.30;3.00;;;;;;;25.75;52.47;98939.55;225510;1266;22552;-69
2023/07/11 10:33:03;;;;;;;3.30;3.00;;;;;;;25.77;51.73;98938.61;225508;1261;23491;-71
2023/07/11 10:38:21;;;;;;;3.20;3.00;;;;;;;25.85;51.88;98932.52;225357;1262;25594;-71
2023/07/11 10:43:35;;;;;;;3.30;3.10;;;;;;;25.86;50.92;98927.64;225432;1273;22555;-72
2023/07/11 10:49:07;;;;;;;3.80;3.50;;;;;;;25.86;51.27;98922.13;225638;1278;22549;-71
2023/07/11 10:54:17;;;;;;;3.30;3.00;;;;;;;25.93;50.99;98923.95;225253;1274;22943;-71
2023/07/11 10:59:23;;;;;;;4.20;3.20;;;;;;;26.06;50.57;98920.27;225200;1259;22572;-72
2023/07/11 11:04:44;;;;;;;4.30;3.00;;;;;;;26.19;50.58;98913.03;225262;1273;22544;-73
2023/07/11 11:10:42;;;;;;;4.20;3.00;;;;;;;26.36;49.07;98914.25;225409;1275;22591;-70
2023/07/11 11:16:23;;;;;;;3.10;2.60;;;;;;;26.46;48.96;98912.88;225626;1278;22554;-70
2023/07/11 11:22:00;;;;;;;3.10;2.80;;;;;;;26.56;48.43;98910.27;225462;1262;22561;-71
2023/07/11 11:27:33;;;;;;;3.70;2.90;;;;;;;26.71;48.96;98913.35;225613;1275;22561;-70
2023/07/11 11:33:00;;;;;;;2.60;2.40;;;;;;;26.89;48.69;98914.19;225648;1262;22547;-71
2023/07/11 11:38:17;;;;;;;5.60;2.80;;;;;;;26.99;47.67;98909.55;225623;1262;22582;-71
2023/07/11 11:43:24;;;;;;;3.40;2.80;;;;;;;27.05;47.66;98904.67;225422;1276;24231;-71
2023/07/11 11:48:36;;;;;;;5.20;3.10;;;;;;;27.12;47.91;98894.67;225704;1276;23423;-70
2023/07/11 11:54:00;;;;;;;4.20;2.70;;;;;;;27.21;47.40;98894.47;225864;1277;22573;-72
2023/07/11 11:59:13;;;;;;;3.30;2.60;;;;;;;27.33;46.97;98897.02;225467;1275;24297;-71
2023/07/11 12:04:34;;;;;;;3.10;2.80;;;;;;;27.46;46.59;98893.92;225360;1278;22552;-71
2023/07/11 12:09:52;;;;;;;4.50;2.60;;;;;;;27.39;46.52;98897.29;225531;1275;22535;-70
2023/07/11 12:14:56;;;;;;;3.10;2.90;;;;;;;27.21;46.79;98893.65;225612;1276;22551;-70
2023/07/11 12:20:02;;;;;;;2.90;2.70;;;;;;;27.19;47.10;98885.87;225756;1277;22543;-71
2023/07/11 12:25:28;;;;;;;3.20;2.70;;;;;;;27.39;46.67;98884.20;225670;1277;24819;-70
2023/07/11 12:30:41;;;;;;;3.20;3.00;;;;;;;27.55;46.28;98878.27;225643;1272;22566;-69
2023/07/11 12:35:44;;;;;;;4.10;2.80;;;;;;;27.52;46.07;98881.19;225595;1268;22547;-72
2023/07/11 12:41:08;;;;;;;3.60;2.70;;;;;;;27.56;46.04;98871.26;225506;1280;22555;-69
2023/07/11 12:46:19;;;;;;;3.40;2.50;;;;;;;27.70;45.81;98875.77;225604;1276;25862;-70
2023/07/11 12:51:39;;;;;;;2.70;2.50;;;;;;;27.84;45.73;98873.45;225469;1262;22554;-71
2023/07/11 12:56:45;;;;;;;6.00;2.60;;;;;;;27.94;45.13;98868.97;225413;1260;22533;-71
2023/07/11 13:01:52;;;;;;;3.30;2.30;;;;;;;27.97;44.57;98873.73;225418;1269;24299;-70
2023/07/11 13:06:56;;;;;;;2.90;2.40;;;;;;;28.00;44.50;98866.52;225755;1276;22574;-70
2023/07/11 13:11:59;;;;;;;2.70;2.50;;;;;;;28.01;44.11;98859.61;225590;1273;24191;-70
2023/07/11 13:17:02;;;;;;;4.60;2.20;;;;;;;27.99;44.06;98857.09;225526;1267;25434;-72
2023/07/11 13:22:04;;;;;;;2.50;2.30;;;;;;;27.94;43.80;98856.80;225468;1262;22540;-70
2023/07/11 13:27:17;;;;;;;2.40;2.20;;;;;;;27.93;43.49;98855.79;225442;1259;23479;-70
2023/07/11 13:32:25;;;;;;;3.50;2.70;;;;;;;27.99;43.70;98847.54;225734;1276;22545;-70
2023/07/11 13:37:39;;;;;;;2.60;2.40;;;;;;;28.12;43.64;98847.82;225337;1278;22561;-69
2023/07/11 13:42:44;;;;;;;4.10;2.60;;;;;;;28.17;43.52;98846.45;225413;1277;22554;-72
2023/07/11 13:47:47;;;;;;;2.90;2.50;;;;;;;28.13;43.35;98843.80;225334;1262;22584;-70
2023/07/11 13:53:14;;;;;;;2.20;2.00;;;;;;;28.09;43.24;98844.08;225366;1280;22543;-70
2023/07/11 13:58:18;;;;;;;3.40;2.10;;;;;;;28.14;43.08;98830.62;225196;1262;22728;-72
2023/07/11 14:03:23;;;;;;;3.60;2.30;;;;;;;28.22;42.74;98833.86;225309;1278;23001;-72
2023/07/11 14:08:34;;;;;;;4.20;2.40;;;;;;;28.27;42.62;98828.42;224977;1276;22549;-72
2023/07/11 14:13:36;;;;;;;2.60;2.20;;;;;;;28.32;43.00;98827.95;225136;1278;22602;-73
2023/07/11 14:18:41;;;;;;;2.20;2.00;;;;;;;28.43;42.69;98825.83;225336;1278;22598;-73
2023/07/11 14:23:43;;;;;;;20.60;18.80;;;;;;;28.47;42.24;98821.84;225748;1280;22641;-72
2023/07/11 14:29:09;;;;;;;3.40;2.30;;;;;;;28.56;41.98;98823.16;225650;1279;25284;-73
2023/07/11 14:34:28;;;;;;;2.50;2.30;;;;;;;28.60;41.78;98825.25;225831;1278;22584;-73
2023/07/11 14:39:30;;;;;;;2.10;1.90;;;;;;;28.63;41.48;98823.16;225844;1278;23291;-73
2023/07/11 14:44:32;;;;;;;2.90;2.20;;;;;;;28.62;41.54;98819.60;225839;1278;22997;-73
2023/07/11 14:49:34;;;;;;;2.50;2.30;;;;;;;28.67;41.69;98816.98;225780;1279;22540;-73
2023/07/11 14:54:36;;;;;;;2.60;2.40;;;;;;;28.72;41.46;98815.84;225824;1278;22553;-73
2023/07/11 14:59:45;;;;;;;3.10;2.80;;;;;;;28.71;41.60;98817.39;225970;1278;23313;-73
2023/07/11 15:04:48;;;;;;;2.60;2.40;;;;;;;28.68;41.52;98811.04;225721;1280;22540;-74
2023/07/11 15:09:56;;;;;;;2.70;2.50;;;;;;;28.68;41.75;98807.55;225946;1278;22547;-72
2023/07/11 15:15:00;;;;;;;2.70;2.50;;;;;;;28.67;41.58;98805.99;225788;1280;22547;-73
2023/07/11 15:20:13;;;;;;;2.80;2.60;;;;;;;28.57;41.32;98800.51;225606;1280;22530;-73
2023/07/11 15:25:19;;;;;;;3.10;2.40;;;;;;;28.53;41.65;98799.50;225879;1281;22557;-72
2023/07/11 15:30:27;;;;;;;2.60;2.40;;;;;;;28.55;41.95;98788.91;225800;1280;22543;-73
2023/07/11 15:35:30;;;;;;;3.30;2.60;;;;;;;28.59;42.02;98789.53;225713;1280;22539;-73
2023/07/11 15:40:36;;;;;;;3.50;2.20;;;;;;;28.65;41.92;98788.67;225730;1278;22543;-73
2023/07/11 15:45:39;;;;;;;7.00;3.40;;;;;;;28.62;41.64;98781.58;225757;1280;23027;-73
2023/07/11 15:50:44;;;;;;;2.90;2.60;;;;;;;28.57;41.69;98774.45;225875;1278;24253;-73
2023/07/11 15:55:54;;;;;;;3.00;2.50;;;;;;;28.55;41.53;98772.39;225825;1278;22595;-73
2023/07/11 16:00:56;;;;;;;2.80;2.50;;;;;;;28.52;41.47;98766.30;225823;1278;22545;-72
2023/07/11 16:05:59;;;;;;;2.80;2.50;;;;;;;28.49;41.67;98767.84;225846;1278;22547;-72
2023/07/11 16:11:02;;;;;;;2.60;2.40;;;;;;;28.47;41.84;98769.04;225741;1280;22570;-72
2023/07/11 16:16:14;;;;;;;2.60;2.40;;;;;;;28.44;41.68;98768.02;225948;1280;22544;-73
2023/07/11 16:21:18;;;;;;;2.80;2.50;;;;;;;28.38;41.58;98765.07;225753;1280;22564;-73
2023/07/11 16:26:25;;;;;;;7.20;2.40;;;;;;;28.37;41.58;98756.90;225803;1280;25284;-73
2023/07/11 16:31:32;;;;;;;3.00;2.30;;;;;;;28.34;41.36;98754.51;225866;1280;22642;-73
2023/07/11 16:36:35;;;;;;;2.70;2.50;;;;;;;28.28;41.30;98752.92;225882;1278;24764;-73
2023/07/11 16:41:37;;;;;;;3.10;2.20;;;;;;;28.22;41.33;98747.12;225771;1280;24242;-73
2023/07/11 16:46:46;;;;;;;2.40;2.20;;;;;;;28.17;41.28;98742.11;225878;1279;22540;-73
2023/07/11 16:51:49;;;;;;;2.70;2.50;;;;;;;28.09;41.45;98740.73;225896;1280;24238;-73
2023/07/11 16:56:52;;;;;;;2.70;2.40;;;;;;;28.01;41.72;98738.98;225903;1273;22722;-72
2023/07/11 17:01:54;;;;;;;3.60;2.60;;;;;;;27.99;41.82;98739.80;225907;1277;22548;-73
2023/07/11 17:06:56;;;;;;;3.00;2.60;;;;;;;28.03;41.65;98737.01;225811;1279;22547;-73
2023/07/11 17:11:58;;;;;;;2.80;2.50;;;;;;;27.98;41.60;98735.56;225671;1281;22699;-73
2023/07/11 17:17:01;;;;;;;2.80;2.60;;;;;;;27.97;41.41;98735.16;225700;1280;25407;-73
2023/07/11 17:22:12;;;;;;;3.30;2.30;;;;;;;28.69;41.92;98728.57;225721;1281;25080;-73
2023/07/11 17:27:16;;;;;;;;;;;;;;;30.17;41.09;98725.23;225815;1280;22521;-72
2023/07/11 17:32:23;;;;;;;2.70;2.40;;;;;;;31.50;40.01;98724.64;225877;1276;23111;-72
2023/07/11 17:37:29;;;;;;;3.00;2.40;;;;;;;32.68;38.98;98725.17;225719;1281;22526;-74
2023/07/11 17:42:31;;;;;;;3.50;2.90;;;;;;;33.70;37.96;98727.35;226019;1277;22537;-72
2023/07/11 17:47:33;;;;;;;2.90;2.40;;;;;;;34.65;37.41;98723.86;225853;1276;22544;-72
2023/07/11 17:52:55;;;;;;;4.40;2.40;;;;;;;34.78;36.10;98721.25;225840;1280;22583;-73
2023/07/11 17:57:57;;;;;;;3.20;2.70;;;;;;;33.63;35.82;98723.84;225718;1280;22554;-72
2023/07/11 18:02:59;;;;;;;2.60;2.40;;;;;;;32.35;36.28;98726.39;225870;1279;22540;-73
2023/07/11 18:08:12;;;;;;;3.70;2.90;;;;;;;31.28;36.97;98727.19;225891;1276;25304;-73
2023/07/11 18:13:14;;;;;;;3.80;2.80;;;;;;;30.32;37.85;98723.55;225622;1277;22544;-73
2023/07/11 18:18:28;;;;;;;3.10;2.80;;;;;;;29.59;39.12;98728.78;225854;1281;22539;-73
2023/07/11 18:23:40;;;;;;;3.30;2.70;;;;;;;28.85;39.77;98737.59;225737;1280;195246;-73
2023/07/11 18:28:42;;;;;;;4.30;3.10;;;;;;;28.22;40.50;98742.04;225808;1273;22570;-73
2023/07/11 18:33:53;;;;;;;4.60;2.80;;;;;;;27.67;41.19;98737.95;225707;1270;22543;-73
2023/07/11 18:38:56;;;;;;;3.40;2.80;;;;;;;27.20;42.10;98735.23;225803;1281;22571;-73
2023/07/11 18:43:58;;;;;;;4.90;4.10;;;;;;;26.79;42.83;98731.25;225930;1277;23076;-72
2023/07/11 18:49:00;;;;;;;3.60;3.20;;;;;;;26.37;43.69;98732.95;225828;1274;22539;-72
2023/07/11 18:54:02;;;;;;;3.90;3.20;;;;;;;25.96;44.50;98732.86;225795;1275;22552;-72
2023/07/11 18:59:09;;;;;;;4.10;3.40;;;;;;;25.56;45.15;98737.51;225659;1280;22963;-71
2023/07/11 19:04:11;;;;;;;5.90;3.30;;;;;;;25.15;45.62;98736.50;225777;1280;22539;-73
2023/07/11 19:09:13;;;;;;;4.50;3.20;;;;;;;24.77;46.32;98734.28;225743;1277;22538;-72
2023/07/11 19:14:17;;;;;;;3.90;3.30;;;;;;;24.40;46.81;98734.59;225794;1280;22554;-73
2023/07/11 19:19:27;;;;;;;4.40;2.70;;;;;;;24.07;47.41;98738.23;225837;1281;22547;-72
2023/07/11 19:24:29;;;;;;;6.10;3.50;;;;;;;23.75;47.91;98732.19;225802;1276;22570;-72
2023/07/11 19:29:31;;;;;;;4.00;3.20;;;;;;;23.46;48.33;98728.58;225785;1279;22610;-72
2023/07/11 19:34:33;;;;;;;3.90;3.40;;;;;;;23.20;48.89;98725.64;225829;1273;22547;-72
2023/07/11 19:39:35;;;;;;;7.60;3.20;;;;;;;22.95;49.47;98733.25;225797;1280;22531;-73
2023/07/11 19:44:37;;;;;;;5.00;4.30;;;;;;;22.71;50.08;98727.93;225646;1280;22552;-72
2023/07/11 19:49:40;;;;;;;7.00;4.50;;;;;;;22.47;50.48;98728.91;225782;1280;22587;-73
2023/07/11 19:54:43;;;;;;;5.60;3.70;;;;;;;22.25;51.00;98729.61;225830;1277;22529;-72
2023/07/11 19:59:46;;;;;;;5.40;4.50;;;;;;;22.03;51.50;98726.68;225902;1280;24340;-72
2023/07/11 20:04:48;;;;;;;7.10;4.80;;;;;;;21.84;51.95;98722.75;225781;1279;22555;-73
2023/07/11 20:09:50;;;;;;;10.00;5.30;;;;;;;21.66;52.53;98716.91;225842;1276;24262;-73
2023/07/11 20:14:52;;;;;;;6.90;5.20;;;;;;;21.49;53.21;98714.13;225639;1279;22650;-73
2023/07/11 20:19:57;;;;;;;7.90;5.70;;;;;;;21.32;54.02;98716.88;225682;1280;22559;-72
2023/07/11 20:24:59;;;;;;;10.50;6.50;;;;;;;21.15;54.67;98713.36;225822;1280;22598;-73
2023/07/11 20:30:01;;;;;;;6.40;5.00;;;;;;;20.98;55.36;98705.27;225953;1276;22541;-72
2023/07/11 20:35:04;;;;;;;8.10;5.20;;;;;;;20.85;55.79;98696.45;225653;1280;25409;-72
2023/07/11 20:40:15;;;;;;;8.50;5.10;;;;;;;20.70;56.18;98691.77;225612;1276;22543;-72
2023/07/11 20:45:21;;;;;;;8.50;5.20;;;;;;;20.57;56.62;98686.76;225813;1280;22559;-72
2023/07/11 20:50:38;;;;;;;7.70;5.50;;;;;;;20.41;57.07;98685.70;225825;1280;22548;-72
2023/07/11 20:55:46;;;;;;;11.20;7.10;;;;;;;20.30;57.79;98687.45;225764;1278;22555;-71
2023/07/11 21:00:49;;;;;;;7.80;5.80;;;;;;;20.18;58.29;98682.17;225801;1278;22547;-72
2023/07/11 21:05:54;;;;;;;6.20;5.60;;;;;;;20.04;58.59;98677.35;225897;1278;22565;-73
2023/07/11 21:11:02;;;;;;;11.40;6.30;;;;;;;19.92;59.18;98671.90;225850;1280;22671;-72
2023/07/11 21:16:12;;;;;;;11.60;6.50;;;;;;;19.79;59.68;98666.44;225867;1280;22534;-72
2023/07/11 21:21:15;;;;;;;10.20;6.50;;;;;;;19.66;60.11;98663.56;225839;1280;25881;-72
2023/07/11 21:26:20;;;;;;;8.70;6.40;;;;;;;19.54;60.57;98657.94;225822;1277;22639;-73
2023/07/11 21:31:23;;;;;;;9.90;7.10;;;;;;;19.39;60.84;98648.77;225706;1280;22593;-73
2023/07/11 21:36:46;;;;;;;8.90;7.10;;;;;;;19.27;61.35;98649.67;225679;1280;22563;-73
2023/07/11 21:41:52;;;;;;;13.60;8.20;;;;;;;19.16;61.57;98637.45;225727;1278;22746;-72
2023/07/11 21:46:54;;;;;;;9.20;7.60;;;;;;;19.05;61.87;98633.17;225782;1273;22623;-73
2023/07/11 21:51:56;;;;;;;8.60;6.70;;;;;;;18.95;62.19;98627.16;225861;1276;22582;-73
2023/07/11 21:56:58;;;;;;;8.70;6.40;;;;;;;18.88;62.39;98613.39;225839;1277;22575;-73
2023/07/11 22:02:00;;;;;;;7.60;5.80;;;;;;;18.80;62.63;98604.87;225852;1278;22949;-72
2023/07/11 22:07:02;;;;;;;8.00;5.70;;;;;;;18.75;62.81;98599.64;225814;1278;22557;-72
2023/07/11 22:12:05;;;;;;;9.10;6.30;;;;;;;18.68;62.89;98587.02;225682;1280;22550;-73
2023/07/11 22:17:08;;;;;;;8.70;6.60;;;;;;;18.60;63.05;98585.92;225746;1278;22559;-73
2023/07/11 22:22:26;;;;;;;9.30;6.70;;;;;;;18.50;63.27;98587.99;225707;1280;23017;-72
2023/07/11 22:27:29;;;;;;;8.60;5.80;;;;;;;18.40;63.50;98572.41;225597;1280;22547;-73
2023/07/11 22:32:38;;;;;;;7.50;5.80;;;;;;;18.31;63.85;98562.54;225764;1280;22655;-73
2023/07/11 22:37:44;;;;;;;7.50;5.40;;;;;;;18.22;64.52;98557.00;225857;1280;22573;-73
2023/07/11 22:42:49;;;;;;;6.60;5.20;;;;;;;18.12;65.01;98557.30;225685;1280;23023;-72
2023/07/11 22:47:52;;;;;;;6.40;5.10;;;;;;;18.04;65.29;98553.97;225831;1280;22573;-72
2023/07/11 22:52:55;;;;;;;7.60;5.40;;;;;;;17.95;65.90;98555.84;225769;1278;22554;-73
2023/07/11 22:57:59;;;;;;;7.50;5.10;;;;;;;17.88;65.76;98571.44;225779;1275;22539;-72
2023/07/11 23:03:05;;;;;;;9.80;5.40;;;;;;;17.80;65.82;98583.31;225829;1280;22557;-72
2023/07/11 23:08:16;;;;;;;9.90;5.30;;;;;;;17.72;66.16;98601.94;225667;1278;22983;-72
2023/07/11 23:13:26;;;;;;;9.30;5.60;;;;;;;17.67;66.26;98605.78;225806;1280;24260;-71
2023/07/11 23:18:29;;;;;;;10.00;5.80;;;;;;;17.63;66.70;98600.94;225748;1278;23145;-72
2023/07/11 23:23:31;;;;;;;11.20;6.00;;;;;;;17.60;66.91;98603.70;225835;1276;23181;-72
2023/07/11 23:28:38;;;;;;;8.90;6.20;;;;;;;17.56;66.75;98603.39;225860;1276;22564;-72
2023/07/11 23:34:06;;;;;;;10.80;5.70;;;;;;;17.52;66.85;98598.25;225863;1276;22550;-72
2023/07/11 23:39:51;;;;;;;11.00;6.90;;;;;;;17.49;67.02;98592.05;225858;1276;24219;-72
2023/07/11 23:45:01;;;;;;;9.50;6.10;;;;;;;17.44;67.26;98583.83;225827;1280;22543;-73
2023/07/11 23:50:30;;;;;;;9.40;5.90;;;;;;;17.40;67.33;98577.05;225829;1276;22546;-72
2023/07/11 23:56:31;;;;;;;9.70;5.70;;;;;;;17.36;67.29;98574.16;225835;1276;22544;-73
